Time;durP1;ratioP1;P1;durP2;ratioP2;P2;SDS_P1;SDS_P2;PMS_P1;PMS_P2;Temp;Humidity;BMP_temperature;BMP_pressure;BME280_temperature;BME280_humidity;BME280_pressure;Samples;Min_cycle;Max_cycle;Signal;HPM_P1;HPM_P2
2021/06/20 00:01:33;;;;;;;13.07;5.70;;;;;;;20.27;65.51;94979.16;5072635;28;20813;-72
2021/06/20 00:04:00;;;;;;;9.33;5.43;;;;;;;20.14;65.87;94982.72;5071361;28;20445;-71
2021/06/20 00:06:35;;;;;;;8.57;5.30;;;;;;;20.13;66.46;94967.81;5072426;28;20557;-73
2021/06/20 00:09:06;;;;;;;7.00;4.87;;;;;;;20.11;66.43;94964.69;5057602;28;20544;-74
2021/06/20 00:11:35;;;;;;;6.80;5.13;;;;;;;19.91;66.82;94975.94;5072226;28;20517;-72
2021/06/20 00:14:03;;;;;;;9.20;5.03;;;;;;;19.79;66.86;94951.84;5057404;28;21576;-76
2021/06/20 00:16:30;;;;;;;10.33;4.93;;;;;;;19.82;66.28;94967.16;5058333;28;20444;-74
2021/06/20 00:18:59;;;;;;;7.03;4.70;;;;;;;19.73;66.32;94958.41;5062978;28;20554;-73
2021/06/20 00:21:27;;;;;;;9.80;4.70;;;;;;;19.69;66.07;94968.88;5063266;28;20438;-75
2021/06/20 00:23:54;;;;;;;10.10;4.73;;;;;;;19.84;66.36;94978.28;5071594;28;20934;-73
2021/06/20 00:26:21;;;;;;;7.90;4.40;;;;;;;19.89;65.38;94976.25;5063048;28;20802;-75
2021/06/20 00:28:48;;;;;;;6.07;4.10;;;;;;;19.79;65.36;94973.13;5065612;28;20488;-74
2021/06/20 00:31:16;;;;;;;3.93;3.40;;;;;;;19.90;64.57;94979.72;5053532;28;20441;-75
2021/06/20 00:33:43;;;;;;;3.93;3.23;;;;;;;20.21;63.42;94975.06;5066873;28;20445;-72
2021/06/20 00:36:11;;;;;;;7.83;3.50;;;;;;;20.28;63.06;94985.22;5065765;28;20477;-72
2021/06/20 00:38:38;;;;;;;5.33;3.03;;;;;;;19.88;63.69;94981.88;5053815;28;20447;-72
2021/06/20 00:41:05;;;;;;;8.37;3.27;;;;;;;19.99;62.91;94980.50;5071061;28;20434;-73
2021/06/20 00:43:32;;;;;;;5.93;3.40;;;;;;;20.03;62.68;94968.16;5056946;28;20566;-72
2021/06/20 00:45:59;;;;;;;4.53;3.30;;;;;;;19.80;63.86;94958.72;5070695;28;20529;-74
2021/06/20 00:48:28;;;;;;;4.23;3.30;;;;;;;19.91;63.93;94970.63;5071736;28;20524;-75
2021/06/20 00:50:55;;;;;;;2.77;2.57;;;;;;;20.09;62.93;94972.19;5056703;28;20939;-73
2021/06/20 00:53:22;;;;;;;6.20;3.07;;;;;;;20.11;62.28;94972.66;5059215;28;20880;-73
2021/06/20 00:55:50;;;;;;;4.00;3.10;;;;;;;19.87;63.47;94967.03;5065144;28;20500;-76
2021/06/20 00:58:21;;;;;;;7.87;3.57;;;;;;;19.73;64.57;94964.50;5051285;28;20531;-72
2021/06/20 01:00:49;;;;;;;6.50;3.43;;;;;;;19.87;64.48;94949.19;5067156;28;20499;-72
2021/06/20 01:03:16;;;;;;;5.27;3.60;;;;;;;19.95;64.35;94944.97;5071062;28;20430;-72
2021/06/20 01:05:45;;;;;;;5.07;4.20;;;;;;;20.03;64.20;94946.88;5056208;28;20430;-74
2021/06/20 01:08:13;;;;;;;10.03;4.37;;;;;;;19.87;64.67;94938.56;5070840;28;20473;-72
2021/06/20 01:10:41;;;;;;;9.33;3.80;;;;;;;19.74;65.44;94944.03;5070030;28;20458;-73
2021/06/20 01:13:11;;;;;;;9.37;4.37;;;;;;;19.34;66.51;94930.03;5063988;28;20518;-73
2021/06/20 01:15:39;;;;;;;8.50;4.60;;;;;;;19.60;65.92;94932.72;5062544;28;20892;-73
2021/06/20 01:18:10;;;;;;;5.20;4.27;;;;;;;19.76;65.47;94944.50;5065167;28;20431;-71
2021/06/20 01:20:39;;;;;;;6.73;4.30;;;;;;;19.68;65.77;94947.91;5054237;28;20848;-72
2021/06/20 01:23:06;;;;;;;6.60;3.90;;;;;;;19.61;65.37;94955.56;5060344;28;20442;-74
2021/06/20 01:25:34;;;;;;;10.77;4.10;;;;;;;19.65;65.60;94946.66;5067139;28;20485;-72
2021/06/20 01:28:09;;;;;;;5.97;3.83;;;;;;;19.65;65.68;94951.97;5070294;28;20473;-73
2021/06/20 01:30:41;;;;;;;10.00;4.30;;;;;;;19.53;66.22;94943.03;5053511;28;20434;-72
2021/06/20 01:33:27;;;;;;;8.13;4.17;;;;;;;19.19;67.57;94957.00;5050577;28;20528;-73
2021/06/20 01:35:54;;;;;;;8.43;4.70;;;;;;;19.54;66.28;94941.97;5049938;28;20453;-70
2021/06/20 01:38:21;;;;;;;7.40;4.40;;;;;;;19.56;66.17;94947.75;5064850;28;20878;-72
2021/06/20 01:40:48;;;;;;;7.43;3.87;;;;;;;19.85;65.29;94955.94;5070138;28;20722;-72
2021/06/20 01:43:15;;;;;;;5.97;3.90;;;;;;;19.81;65.56;94965.63;5070601;28;20488;-75
2021/06/20 01:45:42;;;;;;;8.03;3.70;;;;;;;19.82;65.26;94961.84;5070049;28;20465;-73
2021/06/20 01:48:11;;;;;;;7.07;4.10;;;;;;;19.88;64.83;94937.47;5059351;28;20458;-73
2021/06/20 01:50:38;;;;;;;8.70;4.30;;;;;;;19.98;64.76;94955.78;5053063;28;20442;-71
2021/06/20 01:53:08;;;;;;;9.47;3.80;;;;;;;19.93;65.08;94955.94;5069986;28;20441;-71
2021/06/20 01:55:37;;;;;;;7.80;3.80;;;;;;;19.82;65.76;94967.16;5068511;28;20457;-72
2021/06/20 01:58:08;;;;;;;8.60;4.37;;;;;;;19.77;65.12;94970.00;5069842;28;20449;-74
2021/06/20 02:00:36;;;;;;;6.20;4.10;;;;;;;19.71;64.92;94965.91;5069832;28;20442;-72
2021/06/20 02:03:11;;;;;;;7.57;4.03;;;;;;;19.50;65.75;94959.63;5069270;28;20552;-74
2021/06/20 02:05:39;;;;;;;8.27;3.97;;;;;;;19.64;65.59;94965.59;5055502;28;20442;-73
2021/06/20 02:08:12;;;;;;;7.07;3.93;;;;;;;19.83;64.98;94966.09;5069882;28;21118;-74
2021/06/20 02:10:40;;;;;;;8.00;4.10;;;;;;;19.81;64.63;94970.94;5070219;28;20269;-73
2021/06/20 02:13:07;;;;;;;8.47;4.03;;;;;;;19.72;65.13;94968.28;5064525;28;20509;-73
2021/06/20 02:15:34;;;;;;;7.90;4.07;;;;;;;19.75;65.13;94970.31;5049764;28;20447;-72
2021/06/20 02:18:02;;;;;;;6.87;4.00;;;;;;;19.63;65.29;94972.78;5068480;28;20994;-74
2021/06/20 02:20:30;;;;;;;10.00;3.77;;;;;;;19.41;65.36;94950.84;5055398;28;20456;-74
2021/06/20 02:22:57;;;;;;;8.40;3.43;;;;;;;19.34;65.84;94977.06;5070035;28;20441;-73
2021/06/20 02:25:25;;;;;;;7.13;3.87;;;;;;;19.16;65.72;94966.34;5069702;28;20959;-73
2021/06/20 02:27:53;;;;;;;17.67;4.50;;;;;;;19.36;65.11;94980.22;5068921;28;20533;-73
2021/06/20 02:30:21;;;;;;;7.73;3.97;;;;;;;19.20;65.87;94971.81;5071273;28;20454;-73
2021/06/20 02:32:50;;;;;;;7.17;3.70;;;;;;;19.13;66.06;94971.50;5054535;28;20455;-75
2021/06/20 02:35:17;;;;;;;7.53;4.40;;;;;;;19.17;66.24;94983.88;5066037;28;20446;-76
2021/06/20 02:37:47;;;;;;;9.83;4.30;;;;;;;19.14;67.17;94984.47;5061535;28;20438;-74
2021/06/20 02:40:15;;;;;;;8.17;4.33;;;;;;;19.29;66.27;94977.19;5065803;28;20446;-74
2021/06/20 02:42:43;;;;;;;7.67;4.10;;;;;;;18.81;68.44;94983.19;5059770;28;20441;-73
2021/06/20 02:45:14;;;;;;;6.70;3.93;;;;;;;19.00;67.84;94983.00;5072474;28;20506;-73
2021/06/20 02:47:42;;;;;;;8.57;4.30;;;;;;;19.23;66.19;94974.66;5060564;28;20952;-73
2021/06/20 02:50:10;;;;;;;8.83;3.77;;;;;;;19.31;65.62;94973.16;5072642;28;20477;-72
2021/06/20 02:52:37;;;;;;;7.77;3.77;;;;;;;19.19;65.53;94973.72;5073510;28;20496;-72
2021/06/20 02:55:05;;;;;;;9.03;4.80;;;;;;;19.03;65.92;94972.53;5073195;28;20524;-73
2021/06/20 02:57:32;;;;;;;6.87;3.60;;;;;;;18.93;66.96;94980.78;5072795;28;20499;-73
2021/06/20 03:00:03;;;;;;;8.73;4.07;;;;;;;19.04;65.55;94974.13;5073478;28;20445;-75
2021/06/20 03:02:30;;;;;;;11.20;4.17;;;;;;;19.16;65.93;94976.19;5073271;28;20445;-77
2021/06/20 03:04:58;;;;;;;9.67;3.80;;;;;;;18.99;66.08;94982.22;5063849;28;20435;-75
2021/06/20 03:07:25;;;;;;;5.07;3.53;;;;;;;19.08;65.39;94985.72;5068731;28;20446;-73
2021/06/20 03:09:52;;;;;;;6.73;3.57;;;;;;;19.09;65.01;94984.59;5073104;28;20485;-76
2021/06/20 03:12:19;;;;;;;7.53;3.80;;;;;;;19.21;64.76;94978.72;5074052;28;20510;-76
2021/06/20 03:14:47;;;;;;;6.80;4.20;;;;;;;19.23;64.84;94981.06;5059261;28;20530;-73
2021/06/20 03:17:15;;;;;;;5.73;3.70;;;;;;;19.13;65.12;94966.19;5073494;28;20519;-73
2021/06/20 03:19:43;;;;;;;6.10;3.80;;;;;;;19.09;65.46;94979.28;5062450;28;20441;-72
2021/06/20 03:22:11;;;;;;;7.13;3.80;;;;;;;19.15;65.25;94964.78;5066849;28;20434;-71
2021/06/20 03:24:41;;;;;;;6.83;3.80;;;;;;;19.58;64.05;94961.53;5052527;28;20445;-72
2021/06/20 03:27:09;;;;;;;7.00;4.10;;;;;;;19.61;63.69;94974.19;5066875;28;20503;-71
2021/06/20 03:29:36;;;;;;;8.80;4.20;;;;;;;19.60;63.87;94961.97;5053045;28;20833;-72
2021/06/20 03:32:04;;;;;;;13.20;3.97;;;;;;;19.79;63.51;94952.63;5053898;28;20466;-73
2021/06/20 03:34:32;;;;;;;8.43;4.20;;;;;;;19.58;64.20;94948.22;5055537;28;20876;-70
2021/06/20 03:37:01;;;;;;;12.03;4.77;;;;;;;19.48;64.71;94962.59;5068384;28;20457;-75
2021/06/20 03:39:27;;;;;;;13.03;3.93;;;;;;;19.49;64.61;94963.38;5073656;28;20476;-75
2021/06/20 03:41:55;;;;;;;10.60;4.07;;;;;;;19.76;64.28;94957.81;5058712;28;20546;-71
2021/06/20 03:44:22;;;;;;;9.67;4.10;;;;;;;19.71;64.38;94966.69;5072824;28;20441;-73
2021/06/20 03:46:49;;;;;;;11.47;4.37;;;;;;;19.28;65.93;94967.63;5072386;28;20487;-72
2021/06/20 03:49:16;;;;;;;8.13;4.40;;;;;;;19.25;66.44;94962.94;5051972;28;20481;-74
2021/06/20 03:51:43;;;;;;;7.33;3.83;;;;;;;19.39;65.24;94953.81;5064480;28;20462;-71
2021/06/20 03:54:10;;;;;;;6.50;4.77;;;;;;;19.59;64.81;94958.56;5070288;28;20974;-72
2021/06/20 03:56:37;;;;;;;7.27;4.57;;;;;;;19.27;65.40;94968.75;5061348;28;20472;-71
2021/06/20 03:59:08;;;;;;;6.87;4.17;;;;;;;19.51;64.34;94961.97;5066007;28;20454;-71
2021/06/20 04:01:35;;;;;;;6.50;4.03;;;;;;;19.61;64.34;94947.59;5061855;28;20450;-71
2021/06/20 04:04:04;;;;;;;6.90;4.20;;;;;;;19.61;64.36;94952.91;5072114;28;20465;-71
2021/06/20 04:06:32;;;;;;;7.23;4.03;;;;;;;19.82;63.82;94961.84;5072968;28;20438;-70
2021/06/20 04:08:58;;;;;;;8.03;4.00;;;;;;;19.88;63.35;94955.31;5071630;28;20496;-71
2021/06/20 04:11:26;;;;;;;5.10;3.80;;;;;;;19.97;63.35;94961.41;5072454;28;20980;-72
2021/06/20 04:13:53;;;;;;;7.43;3.60;;;;;;;19.84;63.56;94959.66;5060151;28;20443;-72
2021/06/20 04:16:21;;;;;;;5.00;4.33;;;;;;;19.98;63.65;94960.31;5071565;28;20449;-71
2021/06/20 04:18:48;;;;;;;5.40;4.23;;;;;;;20.09;64.18;94964.22;5060021;28;20485;-71
2021/06/20 04:21:16;;;;;;;6.17;4.30;;;;;;;20.13;64.38;94973.16;5067467;28;20838;-73
2021/06/20 04:23:45;;;;;;;5.70;4.00;;;;;;;20.25;63.82;94976.00;5066685;28;20431;-73
2021/06/20 04:26:12;;;;;;;6.43;4.17;;;;;;;20.24;64.82;94977.09;5059875;28;20452;-75
2021/06/20 04:28:40;;;;;;;8.03;4.63;;;;;;;20.17;64.85;94985.56;5071277;28;20442;-72
2021/06/20 04:31:08;;;;;;;10.87;6.03;;;;;;;20.10;66.02;94989.75;5051857;28;20957;-74
2021/06/20 04:33:36;;;;;;;11.13;6.90;;;;;;;20.18;66.13;94991.66;5051642;28;20553;-73
2021/06/20 04:36:04;;;;;;;13.73;9.07;;;;;;;20.13;66.46;94983.78;5069745;28;20291;-73
2021/06/20 04:38:31;;;;;;;10.23;9.23;;;;;;;19.62;68.21;94978.41;5069241;28;20239;-73
2021/06/20 04:41:05;;;;;;;13.13;9.67;;;;;;;19.96;67.61;94984.56;5059057;28;20190;-72
2021/06/20 04:46:28;;;;;;;11.67;9.33;;;;;;;20.35;67.12;94988.97;5071982;28;20191;-74
2021/06/20 04:49:01;;;;;;;11.57;9.47;;;;;;;20.24;67.26;94993.06;5071011;28;20617;-72
2021/06/20 04:51:33;;;;;;;10.37;9.30;;;;;;;20.18;67.21;94997.00;5071450;28;20207;-74
2021/06/20 04:54:01;;;;;;;14.23;8.60;;;;;;;20.33;66.80;94988.50;5070594;28;20199;-73
2021/06/20 04:56:28;;;;;;;10.03;8.57;;;;;;;20.35;67.62;95002.28;5070879;28;20198;-71
2021/06/20 04:58:55;;;;;;;10.27;8.90;;;;;;;20.36;67.94;95001.22;5070551;28;20454;-71
2021/06/20 05:01:22;;;;;;;9.30;7.83;;;;;;;20.51;67.00;94995.38;5063229;28;20704;-72
2021/06/20 05:03:49;;;;;;;10.03;8.87;;;;;;;20.50;67.79;95012.47;5061592;28;20438;-71
2021/06/20 05:06:16;;;;;;;17.23;9.33;;;;;;;20.62;67.63;95014.50;5054823;28;20296;-70
2021/06/20 05:08:43;;;;;;;10.43;8.77;;;;;;;20.63;67.48;94998.22;5066064;28;20192;-73
2021/06/20 05:11:11;;;;;;;11.33;8.03;;;;;;;20.83;66.77;95010.88;5061508;28;20200;-71
2021/06/20 05:13:38;;;;;;;9.93;8.27;;;;;;;20.49;67.62;95008.22;5061883;28;20587;-72
2021/06/20 05:16:05;;;;;;;9.80;7.47;;;;;;;20.58;67.22;94995.72;5053164;28;20214;-72
2021/06/20 05:18:33;;;;;;;8.03;7.20;;;;;;;20.73;66.97;95000.53;5047815;28;20196;-74
2021/06/20 05:21:00;;;;;;;9.10;7.67;;;;;;;20.70;66.62;95003.03;5061460;28;20194;-73
2021/06/20 05:23:27;;;;;;;8.47;7.10;;;;;;;20.87;66.42;94985.19;5052609;28;20208;-73
2021/06/20 05:25:54;;;;;;;8.37;6.57;;;;;;;21.02;66.10;95005.22;5058929;28;20200;-72
2021/06/20 05:28:21;;;;;;;10.77;6.63;;;;;;;20.93;66.40;94999.88;5047503;28;20563;-72
2021/06/20 05:30:50;;;;;;;8.77;6.33;;;;;;;21.03;65.73;94996.91;5052976;28;20227;-71
2021/06/20 05:33:18;;;;;;;8.63;6.10;;;;;;;20.85;65.76;95000.69;5049144;28;20228;-71
2021/06/20 05:35:46;;;;;;;9.23;5.90;;;;;;;20.95;64.96;94986.22;5059713;28;20464;-73
2021/06/20 05:38:16;;;;;;;7.50;5.80;;;;;;;20.85;65.26;95000.69;5062102;28;20206;-71
2021/06/20 05:40:53;;;;;;;8.30;6.30;;;;;;;20.96;64.33;94993.13;5047558;28;20195;-73
2021/06/20 05:43:23;;;;;;;6.20;5.37;;;;;;;20.62;65.28;94993.97;5051468;28;20266;-72
2021/06/20 05:45:51;;;;;;;7.40;5.77;;;;;;;20.81;64.76;94999.75;5055926;28;20561;-72
2021/06/20 05:48:19;;;;;;;9.33;5.53;;;;;;;20.91;64.83;95003.97;5063851;28;20881;-73
2021/06/20 05:50:46;;;;;;;8.80;6.60;;;;;;;20.82;65.11;95016.53;5054446;28;20211;-72
2021/06/20 05:53:13;;;;;;;7.47;6.30;;;;;;;21.04;64.69;95003.00;5063317;28;20631;-72
2021/06/20 05:55:40;;;;;;;6.93;6.20;;;;;;;20.98;64.93;94997.03;5059285;28;20197;-73
2021/06/20 05:58:07;;;;;;;9.67;6.33;;;;;;;21.11;64.69;94996.09;5050099;28;20224;-73
2021/06/20 06:00:34;;;;;;;7.80;6.33;;;;;;;21.23;64.91;94994.63;5051254;28;20189;-74
2021/06/20 06:03:01;;;;;;;11.67;7.20;;;;;;;21.18;64.51;94988.38;5066068;28;20196;-73
2021/06/20 06:05:29;;;;;;;8.40;6.87;;;;;;;21.28;64.39;94992.56;5064477;28;20657;-72
2021/06/20 06:07:58;;;;;;;8.37;6.63;;;;;;;21.39;63.65;94993.00;5069553;28;20257;-75
2021/06/20 06:10:27;;;;;;;10.37;6.80;;;;;;;21.29;64.13;94985.38;5057525;28;20248;-73
2021/06/20 06:12:56;;;;;;;8.10;6.03;;;;;;;21.29;64.41;94986.16;5064579;28;20180;-73
2021/06/20 06:15:25;;;;;;;7.30;6.60;;;;;;;21.29;63.97;94980.84;5070065;28;20234;-68
2021/06/20 06:17:52;;;;;;;13.20;7.17;;;;;;;21.18;63.96;94985.72;5054127;28;20228;-67
2021/06/20 06:20:20;;;;;;;8.47;6.63;;;;;;;21.34;64.12;94974.53;5053779;28;20673;-68
2021/06/20 06:22:47;;;;;;;8.60;7.60;;;;;;;21.24;64.39;94969.56;5057674;28;21261;-71
2021/06/20 06:25:15;;;;;;;8.97;7.03;;;;;;;21.23;64.53;94979.44;5072996;28;20203;-72
2021/06/20 06:27:44;;;;;;;10.17;7.27;;;;;;;21.30;64.19;94981.59;5059984;28;20592;-71
2021/06/20 06:30:11;;;;;;;10.27;7.33;;;;;;;21.22;64.14;94966.44;5060832;28;20294;-69
2021/06/20 06:32:39;;;;;;;11.00;7.43;;;;;;;21.37;64.13;94964.00;5051774;28;20228;-69
2021/06/20 06:35:07;;;;;;;8.63;7.70;;;;;;;21.38;63.08;94964.78;5063067;28;20199;-68
2021/06/20 06:37:35;;;;;;;9.77;6.83;;;;;;;21.25;63.78;94961.25;5062745;28;20314;-68
2021/06/20 06:40:04;;;;;;;10.20;7.13;;;;;;;21.68;62.86;94966.34;5058078;28;20193;-69
2021/06/20 06:42:31;;;;;;;9.27;7.87;;;;;;;21.78;62.72;94964.09;5072351;28;20203;-68
2021/06/20 06:44:58;;;;;;;12.70;8.27;;;;;;;21.58;63.03;94959.50;5059544;28;20201;-67
2021/06/20 06:47:29;;;;;;;10.63;8.23;;;;;;;21.63;63.12;94971.88;5071466;28;20253;-69
2021/06/20 06:49:56;;;;;;;9.03;6.00;;;;;;;21.55;62.62;94967.38;5071886;28;20598;-66
2021/06/20 06:52:23;;;;;;;6.87;4.30;;;;;;;21.52;59.77;94970.66;5057777;28;20188;-70
2021/06/20 06:54:51;;;;;;;7.77;3.83;;;;;;;21.39;59.36;94963.66;5072397;28;20195;-71
2021/06/20 06:57:23;;;;;;;7.33;4.47;;;;;;;21.59;59.90;94976.28;5070180;28;20202;-71
2021/06/20 06:59:52;;;;;;;6.83;4.67;;;;;;;21.73;60.48;94972.28;5060217;28;20684;-68
2021/06/20 07:02:22;;;;;;;6.97;4.13;;;;;;;21.91;59.44;94973.00;5056405;28;20215;-70
2021/06/20 07:04:50;;;;;;;5.50;4.23;;;;;;;21.99;58.41;94974.81;5072229;28;20220;-73
2021/06/20 07:07:21;;;;;;;7.83;4.70;;;;;;;22.06;57.93;94975.09;5058059;28;20638;-70
2021/06/20 07:09:48;;;;;;;5.07;4.50;;;;;;;22.14;57.34;94982.25;5072669;28;20647;-70
2021/06/20 07:12:15;;;;;;;7.33;4.47;;;;;;;22.07;58.85;94971.31;5072654;28;20708;-72
2021/06/20 07:14:42;;;;;;;5.20;4.70;;;;;;;22.13;59.86;94975.34;5052894;28;20196;-69
2021/06/20 07:17:09;;;;;;;5.60;4.07;;;;;;;22.25;59.16;94972.75;5067009;28;20313;-71
2021/06/20 07:19:39;;;;;;;4.57;3.57;;;;;;;22.16;58.37;94958.69;5056203;28;20265;-75
2021/06/20 07:22:06;;;;;;;6.20;3.60;;;;;;;22.30;56.26;94967.19;5065860;28;20208;-76
2021/06/20 07:24:33;;;;;;;5.43;3.83;;;;;;;22.56;55.43;94965.13;5070301;28;20646;-72
2021/06/20 07:27:00;;;;;;;3.17;2.87;;;;;;;22.89;54.04;94959.75;5069616;28;20558;-73
2021/06/20 07:29:28;;;;;;;3.70;2.47;;;;;;;22.90;53.86;94951.41;5059976;28;20285;-72
2021/06/20 07:31:54;;;;;;;37.37;33.47;;;;;;;22.93;52.43;94944.63;5059987;28;20227;-72
2021/06/20 07:34:21;;;;;;;86.37;77.27;;;;;;;23.26;52.79;94952.56;5072143;28;20274;-76
2021/06/20 07:36:51;;;;;;;11.17;8.63;;;;;;;22.89;52.38;94949.84;5068267;28;20550;-71
2021/06/20 07:39:17;;;;;;;18.80;16.83;;;;;;;23.35;52.48;94945.25;5061097;28;20223;-71
2021/06/20 07:41:45;;;;;;;3.63;2.47;;;;;;;23.17;53.39;94940.09;5064118;28;20200;-72
2021/06/20 07:44:12;;;;;;;6.90;6.30;;;;;;;23.01;51.63;94941.06;5070884;28;20287;-73
2021/06/20 07:46:39;;;;;;;31.03;27.67;;;;;;;23.42;52.84;94929.44;5059613;28;20197;-73
2021/06/20 07:49:08;;;;;;;36.93;32.10;;;;;;;23.54;52.24;94934.78;5056321;28;20212;-75
2021/06/20 07:51:36;;;;;;;2.93;2.40;;;;;;;23.31;49.89;94933.66;5071168;28;20317;-75
2021/06/20 07:54:03;;;;;;;6.17;3.70;;;;;;;23.34;53.87;94943.72;5071053;28;20353;-72
2021/06/20 07:56:30;;;;;;;5.33;3.70;;;;;;;23.26;51.06;94944.56;5061894;28;20207;-70
2021/06/20 07:58:58;;;;;;;3.40;2.67;;;;;;;23.31;49.82;94936.34;5053175;28;20239;-70
2021/06/20 08:01:28;;;;;;;6.83;2.90;;;;;;;23.50;50.78;94931.97;5071587;28;20201;-69
2021/06/20 08:03:55;;;;;;;4.07;3.20;;;;;;;23.82;50.28;94928.41;5070946;28;20192;-70
2021/06/20 08:06:24;;;;;;;4.63;2.50;;;;;;;23.88;52.97;94927.06;5070723;28;20310;-72
2021/06/20 08:08:55;;;;;;;3.53;3.23;;;;;;;23.69;50.93;94918.03;5068812;28;20565;-71
2021/06/20 08:11:24;;;;;;;111.20;100.13;;;;;;;24.17;49.37;94934.03;5057283;28;20246;-72
2021/06/20 08:13:51;;;;;;;15.87;11.07;;;;;;;24.21;50.96;94932.22;5069010;28;20195;-72
2021/06/20 08:16:19;;;;;;;3.57;2.77;;;;;;;24.21;49.70;94934.91;5066062;28;20670;-71
2021/06/20 08:18:46;;;;;;;5.40;4.70;;;;;;;24.39;50.31;94936.19;5060124;28;20204;-71
2021/06/20 08:21:14;;;;;;;5.53;3.40;;;;;;;24.54;47.84;94938.09;5069626;28;20298;-70
2021/06/20 08:23:41;;;;;;;24.00;5.77;;;;;;;24.96;47.32;94933.13;5066787;28;20279;-73
2021/06/20 08:26:08;;;;;;;5.27;3.80;;;;;;;24.95;48.02;94937.72;5069221;28;20198;-69
2021/06/20 08:28:35;;;;;;;5.53;2.60;;;;;;;24.85;46.74;94926.72;5066587;28;20195;-70
2021/06/20 08:31:03;;;;;;;6.03;1.90;;;;;;;24.95;44.89;94916.28;5069245;28;20223;-71
2021/06/20 08:33:30;;;;;;;3.30;2.10;;;;;;;25.23;45.29;94942.22;5070214;28;20689;-71
2021/06/20 08:35:59;;;;;;;3.30;2.30;;;;;;;25.32;45.21;94940.16;5067299;28;20199;-70
2021/06/20 08:38:26;;;;;;;2.60;2.23;;;;;;;25.34;45.47;94943.25;5069715;28;20200;-69
2021/06/20 08:40:56;;;;;;;2.93;1.80;;;;;;;25.02;44.83;94940.56;5056682;28;20210;-73
2021/06/20 08:43:24;;;;;;;3.73;2.20;;;;;;;24.93;44.64;94939.97;5057097;28;20200;-72
2021/06/20 08:45:52;;;;;;;4.47;2.53;;;;;;;25.24;46.34;94949.13;5050357;28;20207;-67
2021/06/20 08:48:20;;;;;;;4.27;2.10;;;;;;;25.10;47.49;94941.53;5062452;28;20210;-72
2021/06/20 08:50:49;;;;;;;16.80;14.77;;;;;;;25.05;47.86;94945.22;5065234;28;20310;-72
2021/06/20 08:53:18;;;;;;;46.97;42.30;;;;;;;25.46;46.97;94937.81;5060867;28;20196;-71
2021/06/20 08:55:46;;;;;;;2.80;2.60;;;;;;;25.52;47.01;94926.50;5066365;28;20189;-74
2021/06/20 08:58:19;;;;;;;2.50;2.30;;;;;;;25.76;47.58;94922.81;5059786;28;20188;-75
2021/06/20 09:00:47;;;;;;;2.47;1.70;;;;;;;25.70;46.71;94934.94;5066772;28;20295;-74
2021/06/20 09:03:15;;;;;;;3.30;3.03;;;;;;;25.97;46.06;94923.25;5059869;28;20741;-73
2021/06/20 09:06:03;;;;;;;3.43;2.20;;;;;;;25.69;45.29;94938.75;5069603;28;20279;-73
2021/06/20 09:08:30;;;;;;;5.07;2.40;;;;;;;25.54;46.07;94931.50;5069188;28;20202;-73
2021/06/20 09:10:58;;;;;;;36.60;32.70;;;;;;;26.16;47.28;94930.59;5068361;28;20230;-74
2021/06/20 09:13:33;;;;;;;4.83;4.43;;;;;;;26.13;44.05;94918.63;5066308;28;20302;-72
2021/06/20 09:16:05;;;;;;;4.37;2.83;;;;;;;25.87;45.05;94937.25;5065270;28;20307;-75
2021/06/20 09:18:35;;;;;;;3.00;2.60;;;;;;;25.41;44.73;94922.00;5062722;28;20572;-73
2021/06/20 09:21:10;;;;;;;2.20;2.00;;;;;;;25.91;45.65;94905.88;5067197;28;20188;-74
2021/06/20 09:23:40;;;;;;;2.70;2.13;;;;;;;26.48;46.01;94916.66;5066457;28;20195;-74
2021/06/20 09:26:07;;;;;;;2.20;2.00;;;;;;;25.81;44.25;94909.91;5068280;28;20203;-75
2021/06/20 09:28:38;;;;;;;2.27;1.60;;;;;;;26.36;45.20;94914.13;5064386;28;20187;-76
2021/06/20 09:31:06;;;;;;;4.33;2.73;;;;;;;26.40;44.78;94920.38;5067475;28;20270;-77
2021/06/20 09:33:36;;;;;;;4.03;2.30;;;;;;;26.04;45.19;94923.44;5067691;28;20307;-76
2021/06/20 09:36:04;;;;;;;4.30;2.43;;;;;;;26.41;44.82;94911.16;5063247;28;20208;-73
2021/06/20 09:38:34;;;;;;;3.17;2.07;;;;;;;26.75;43.76;94915.66;5066908;28;20215;-75
2021/06/20 09:41:11;;;;;;;4.77;1.90;;;;;;;26.52;43.97;94920.19;5057225;28;20656;-73
2021/06/20 09:43:53;;;;;;;2.63;2.43;;;;;;;26.58;44.92;94899.97;5069464;28;20279;-78
2021/06/20 09:46:20;;;;;;;4.23;2.10;;;;;;;26.76;44.69;94906.47;5059184;28;20223;-74
2021/06/20 09:48:47;;;;;;;2.60;1.60;;;;;;;26.34;43.19;94904.88;5062636;28;20286;-75
2021/06/20 09:51:20;;;;;;;4.13;2.10;;;;;;;26.47;44.46;94907.06;5048371;28;20223;-77
2021/06/20 09:53:48;;;;;;;4.07;2.50;;;;;;;26.37;45.31;94899.56;5048670;28;20200;-76
2021/06/20 09:56:27;;;;;;;9.03;2.40;;;;;;;26.57;44.84;94909.16;5057063;28;20208;-75
2021/06/20 09:59:02;;;;;;;5.47;2.83;;;;;;;26.35;45.40;94901.81;5063575;28;20195;-66
2021/06/20 10:01:32;;;;;;;3.27;2.20;;;;;;;26.53;44.94;94902.94;5065806;28;20257;-72
2021/06/20 10:03:59;;;;;;;8.67;7.07;;;;;;;26.79;44.60;94905.75;5064842;28;20199;-69
2021/06/20 10:06:27;;;;;;;18.23;16.30;;;;;;;26.81;44.07;94898.13;5066585;28;20203;-69
2021/06/20 10:08:54;;;;;;;3.33;2.90;;;;;;;26.62;45.38;94903.47;5067208;28;20215;-72
2021/06/20 10:11:23;;;;;;;3.07;2.27;;;;;;;26.57;44.00;94895.72;5067724;28;20312;-72
2021/06/20 10:13:50;;;;;;;4.90;2.20;;;;;;;26.57;44.21;94893.03;5064351;28;20192;-71
2021/06/20 10:16:25;;;;;;;5.20;2.60;;;;;;;26.29;44.00;94887.13;5066114;28;20215;-72
2021/06/20 10:18:51;;;;;;;4.83;2.73;;;;;;;26.02;46.36;94894.22;5065316;28;20195;-70
2021/06/20 10:21:39;;;;;;;2.50;2.30;;;;;;;25.70;48.09;94889.31;5066814;28;20196;-68
2021/06/20 10:24:09;;;;;;;7.57;2.87;;;;;;;25.99;48.70;94878.03;5066106;28;20231;-72
2021/06/20 10:26:41;;;;;;;7.07;3.97;;;;;;;26.11;48.63;94886.00;5064936;28;20191;-70
2021/06/20 10:29:22;;;;;;;4.33;2.40;;;;;;;26.15;48.10;94886.84;5064908;28;20189;-68
2021/06/20 10:31:51;;;;;;;4.77;2.47;;;;;;;26.35;47.36;94887.63;5065005;28;20322;-70
2021/06/20 10:34:24;;;;;;;2.17;1.90;;;;;;;26.52;46.78;94879.88;5065258;28;20553;-70
2021/06/20 10:36:54;;;;;;;2.60;1.73;;;;;;;27.13;45.51;94873.69;5068045;28;20188;-65
2021/06/20 10:39:22;;;;;;;3.37;1.67;;;;;;;27.52;42.59;94867.00;5063538;28;20190;-67
2021/06/20 10:42:05;;;;;;;1.63;1.03;;;;;;;27.62;37.04;94844.84;5065210;28;20245;-73
2021/06/20 10:44:50;;;;;;;0.70;0.70;;;;;;;27.28;37.92;94859.31;5067344;28;20646;-70
2021/06/20 10:47:32;;;;;;;2.13;1.40;;;;;;;27.60;38.01;94853.28;5066187;28;20206;-72
2021/06/20 10:50:08;;;;;;;9.53;8.07;;;;;;;27.69;37.85;94842.25;5066359;28;20223;-71
2021/06/20 10:52:36;;;;;;;128.23;115.43;;;;;;;27.94;38.38;94840.66;5067164;28;20218;-71
2021/06/20 10:55:49;;;;;;;3.60;2.33;;;;;;;28.47;38.35;94842.06;5064646;28;20203;-71
2021/06/20 10:58:27;;;;;;;1.40;1.20;;;;;;;28.50;38.07;94846.69;5055512;28;20196;-69
2021/06/20 11:01:07;;;;;;;3.63;1.30;;;;;;;28.94;36.79;94838.69;5067518;28;20641;-73
2021/06/20 11:03:35;;;;;;;3.77;2.13;;;;;;;28.39;37.66;94818.88;5069034;28;20658;-70
2021/06/20 11:06:02;;;;;;;15.93;14.23;;;;;;;28.66;38.18;94827.63;5068012;28;20283;-70
2021/06/20 11:08:33;;;;;;;2.27;1.30;;;;;;;28.68;37.80;94815.34;5071208;28;20550;-72
2021/06/20 11:11:12;;;;;;;2.20;2.03;;;;;;;28.63;37.14;94826.44;5063970;28;20215;-70
2021/06/20 11:13:41;;;;;;;9.77;2.83;;;;;;;28.19;38.83;94809.44;5069597;28;20574;-72
2021/06/20 11:16:14;;;;;;;5.20;1.50;;;;;;;28.22;38.73;94808.69;5068432;28;20199;-73
2021/06/20 11:18:41;;;;;;;2.10;1.30;;;;;;;28.10;38.82;94806.25;5070765;28;20195;-74
2021/06/20 11:21:09;;;;;;;1.40;1.30;;;;;;;28.22;36.18;94808.69;5068004;28;20187;-74
2021/06/20 11:23:40;;;;;;;4.60;1.50;;;;;;;28.17;38.76;94811.72;5068897;28;20773;-73
2021/06/20 11:26:08;;;;;;;1.67;1.50;;;;;;;28.64;38.46;94814.53;5067032;28;20234;-72
2021/06/20 11:28:34;;;;;;;1.57;1.40;;;;;;;28.77;38.10;94810.41;5070181;28;20283;-69
2021/06/20 11:31:06;;;;;;;5.17;1.40;;;;;;;29.09;36.02;94812.59;5068869;28;20212;-70
2021/06/20 11:33:34;;;;;;;1.70;1.43;;;;;;;29.17;37.10;94798.81;5070461;28;20231;-69
2021/06/20 11:36:02;;;;;;;3.47;1.43;;;;;;;29.37;38.41;94802.00;5067683;28;20207;-68
2021/06/20 11:38:37;;;;;;;2.90;1.80;;;;;;;29.30;36.83;94799.28;5068779;28;20222;-70
2021/06/20 11:41:19;;;;;;;1.57;1.30;;;;;;;29.31;37.23;94796.19;5067768;28;20199;-71
2021/06/20 11:43:54;;;;;;;2.40;1.73;;;;;;;29.48;37.46;94781.25;5067546;28;20685;-69